FW2970 Woods Hole MA US current weather conditions

sailwx.info

Wind from 257 at 12 knots gusting 16

Air temperature 3.3° C
Dewpoint 0.6° C

Last reported at 2020-Jan-27 12:03 UTC.
Time now 2020-Jan-27 12:27 UTC

Location: N 41°32' W 070°41'.
View on Google Maps.

See reports from other nearby stations

  
Tides and Currents Weather Stations Pressure Air Temp Water Temp Dewpoint Dewpoint Depression Visibility Wind Speed Wind Dir Waves Ship Positions
date/time (UTC)wind fromknots sea level pressurealtimeterstation pressurevisibilityair tempwater tempwave heightnotes
2020-Jan-27 12:03 257 12 gusting 16 3.3
2020-Jan-27 11:46 256 11 gusting 15 3.3
2020-Jan-27 11:32 250 10 gusting 14 3.3
2020-Jan-27 11:17 252 11 gusting 16 3.9
2020-Jan-27 11:01 254 12 gusting 14 3.9
2020-Jan-27 10:47 256 8 gusting 13 3.9
2020-Jan-27 10:31 262 12 gusting 14 3.9
2020-Jan-27 10:17 246 11 gusting 13 3.9
2020-Jan-27 10:01 247 10 gusting 15 3.9
2020-Jan-27 09:46 251 9 gusting 14 3.9
2020-Jan-27 09:31 243 8 gusting 12 3.9
2020-Jan-27 09:16 248 8 gusting 13 3.9
2020-Jan-27 09:02 257 10 gusting 13 3.9
2020-Jan-27 08:46 250 9 gusting 13 3.9
2020-Jan-27 08:30 259 8 gusting 12 3.9
2020-Jan-27 08:16 250 6 gusting 11 3.9
2020-Jan-27 08:01 235 6 gusting 9 3.9
2020-Jan-27 07:47 231 6 gusting 8 3.3
2020-Jan-27 07:32 232 5 gusting 8 3.3
2020-Jan-27 07:15 256 4 gusting 6 3.3
2020-Jan-27 07:01 261 3 gusting 6 3.9
2020-Jan-27 06:45 256 3 gusting 5 3.9
2020-Jan-27 06:31 258 5 gusting 7 3.9
2020-Jan-27 06:15 260 5 gusting 8 3.9
2020-Jan-27 06:01 259 6 gusting 8 3.9
2020-Jan-27 05:45 249 6 gusting 8 3.9
2020-Jan-27 05:30 276 5 gusting 9 3.9
2020-Jan-27 05:16 282 6 gusting 11 4.4
2020-Jan-27 05:00 256 8 gusting 13 4.4
2020-Jan-27 04:46 258 7 gusting 11 3.9
2020-Jan-27 04:30 253 8 gusting 10 3.9
2020-Jan-27 04:15 266 7 gusting 11 4.4
2020-Jan-27 04:00 262 6 gusting 10 3.9
2020-Jan-27 03:45 262 8 gusting 13 3.9
2020-Jan-27 03:30 271 7 gusting 12 3.9
2020-Jan-27 03:15 258 6 gusting 11 3.9
2020-Jan-27 03:00 277 6 gusting 11 4.4
2020-Jan-27 02:45 255 7 gusting 12 4.4
2020-Jan-27 02:30 262 7 gusting 13 4.4
2020-Jan-27 02:15 254 9 gusting 12 4.4
2020-Jan-27 02:00 233 6 gusting 9 4.4
2020-Jan-27 01:45 250 5 gusting 6 3.9
2020-Jan-27 01:30 266 4 gusting 6 4.4
2020-Jan-27 01:19 259 4 gusting 6 4.4
2020-Jan-27 01:01 272 3 gusting 6 4.4
2020-Jan-27 00:47 269 5 gusting 8 4.4
2020-Jan-27 00:32 270 6 gusting 8 4.4
2020-Jan-27 00:17 283 5 gusting 7 4.4
2020-Jan-27 00:02 291 4 gusting 7 4.4
2020-Jan-26 23:46 276 6 gusting 8 5.0
2020-Jan-26 23:32 276 6 gusting 10 4.4
2020-Jan-26 23:17 283 7 gusting 12 4.4
2020-Jan-26 23:02 272 10 gusting 18 5.0
2020-Jan-26 22:47 276 13 gusting 16 5.0
2020-Jan-26 22:32 257 12 gusting 17 5.0
2020-Jan-26 22:17 238 12 gusting 17 5.0
2020-Jan-26 22:01 246 11 gusting 15 5.0
2020-Jan-26 21:47 252 12 gusting 19 5.0
2020-Jan-26 21:33 244 13 gusting 21 5.6
2020-Jan-26 21:16 247 12 gusting 21 5.0
2020-Jan-26 21:01 243 13 gusting 19 5.6
2020-Jan-26 20:47 246 13 gusting 20 5.6
2020-Jan-26 20:31 256 12 gusting 18 5.6
2020-Jan-26 20:16 250 13 gusting 19 5.6
2020-Jan-26 20:03 249 13 gusting 19 5.6
2020-Jan-26 19:47 236 13 gusting 18 5.6
2020-Jan-26 19:31 249 13 gusting 20 5.6
2020-Jan-26 19:17 246 15 gusting 22 5.6
2020-Jan-26 19:01 231 14 gusting 20 5.0
2020-Jan-26 18:46 251 17 gusting 25 5.0
2020-Jan-26 18:31 259 14 gusting 22 5.6
2020-Jan-26 18:16 246 14 gusting 19 5.6
2020-Jan-26 18:01 249 14 gusting 19 5.6
2020-Jan-26 17:46 236 13 gusting 17 5.6
2020-Jan-26 17:31 243 10 gusting 16 6.1
2020-Jan-26 17:17 250 11 gusting 14 6.1
2020-Jan-26 17:01 254 9 gusting 13 5.6
2020-Jan-26 16:47 255 7 gusting 11 5.0
2020-Jan-26 16:30 252 8 gusting 11 5.0
2020-Jan-26 16:16 285 6 gusting 11 5.0
2020-Jan-26 16:01 267 7 gusting 12 5.0
2020-Jan-26 15:45 267 7 gusting 12 4.4
2020-Jan-26 15:31 255 7 gusting 11 4.4
2020-Jan-26 15:15 280 8 gusting 13 4.4
2020-Jan-26 15:02 267 6 gusting 13 4.4
2020-Jan-26 14:46 266 8 gusting 13 4.4
2020-Jan-26 14:30 271 7 gusting 13 4.4
2020-Jan-26 14:16 266 7 gusting 11 4.4
2020-Jan-26 14:01 297 9 gusting 15 4.4
2020-Jan-26 13:46 270 11 gusting 15 4.4
2020-Jan-26 13:31 274 6 gusting 11 4.4
2020-Jan-26 13:16 267 6 gusting 10 5.0
2020-Jan-26 13:00 276 7 gusting 13 5.0
2020-Jan-26 12:46 271 6 gusting 11 4.4
2020-Jan-26 12:30 264 7 gusting 12 5.0
2020-Jan-26 12:15 257 9 gusting 12 5.0
2020-Jan-26 12:01 259 7 gusting 11 5.0
2020-Jan-26 11:45 261 7 gusting 13 5.0
2020-Jan-26 11:30 262 7 gusting 12 4.4
2020-Jan-26 11:15 252 10 gusting 13 5.0
2020-Jan-26 11:00 260 10 gusting 15 5.0
2020-Jan-26 10:45 250 10 gusting 13 5.6
2020-Jan-26 10:30 228 10 gusting 14 5.6
2020-Jan-26 10:15 243 9 gusting 13 5.6
2020-Jan-26 10:00 240 8 gusting 12 5.6
2020-Jan-26 09:45 237 4 gusting 7 5.6
2020-Jan-26 09:33 229 7 gusting 11 5.6
2020-Jan-26 09:30 227 8 gusting 11 5.6
2020-Jan-26 09:17 231 6 gusting 10 5.6
2020-Jan-26 09:02 252 8 gusting 12 5.6
2020-Jan-26 08:47 247 10 gusting 13 5.6
2020-Jan-26 08:32 228 13 gusting 17 6.1
2020-Jan-26 08:17 250 12 gusting 15 6.1
2020-Jan-26 08:01 223 10 gusting 13 6.1
2020-Jan-26 07:47 210 6 gusting 8 5.6
2020-Jan-26 07:33 211 6 gusting 9 5.6
2020-Jan-26 07:19 224 6 gusting 11 6.1
2020-Jan-26 07:01 212 6 gusting 9 6.1
2020-Jan-26 06:47 228 6 gusting 8 7.2
2020-Jan-26 06:31 240 5 gusting 8 7.2
2020-Jan-26 06:16 217 6 gusting 9 6.1
2020-Jan-26 06:01 215 6 gusting 11 7.2
2020-Jan-26 05:47 243 8 gusting 13 7.8
2020-Jan-26 05:16 234 9 gusting 13 8.3
2020-Jan-26 05:01 240 9 gusting 13 8.3
2020-Jan-26 04:45 238 10 gusting 13 8.3
2020-Jan-26 04:31 200 8 gusting 13 8.3
2020-Jan-26 04:16 207 10 gusting 14 9.4
2020-Jan-26 04:01 178 13 gusting 20 9.4
2020-Jan-26 03:46 152 13 gusting 23 8.9
2020-Jan-26 03:31 150 19 gusting 26 10.0
2020-Jan-26 03:16 167 18 gusting 29 9.4
2020-Jan-26 03:00 129 14 gusting 26 10.0
2020-Jan-26 02:45 134 14 gusting 21 10.0
2020-Jan-26 02:31 108 17 gusting 23 9.4
2020-Jan-26 02:16 103 14 gusting 25 8.9
2020-Jan-26 02:00 116 13 gusting 20 8.3
2020-Jan-26 01:45 122 13 gusting 24 7.8
2020-Jan-26 01:30 113 11 gusting 17 7.2
2020-Jan-26 01:15 131 12 gusting 19 6.7
2020-Jan-26 01:00 139 11 gusting 17 6.7
2020-Jan-26 00:45 105 10 gusting 16 6.1
2020-Jan-26 00:32 126 11 gusting 19 5.6
2020-Jan-26 00:17 101 10 gusting 19 6.1
2020-Jan-26 00:02 082 12 gusting 19 6.1
2020-Jan-25 23:47 094 11 gusting 22 5.6
2020-Jan-25 23:31 091 13 gusting 20 5.6
2020-Jan-25 23:17 098 11 gusting 23 5.6
2020-Jan-25 23:01 064 12 gusting 20 5.6
2020-Jan-25 22:47 073 12 gusting 22 5.6
2020-Jan-25 22:16 080 12 gusting 19 5.6
2020-Jan-25 22:00 091 11 gusting 19 5.0
2020-Jan-25 21:46 101 9 gusting 18 5.0
2020-Jan-25 21:31 053 10 gusting 18 5.0
2020-Jan-25 21:16 093 11 gusting 19 5.0
2020-Jan-25 21:01 096 11 gusting 22 6.1
2020-Jan-25 20:46 082 11 gusting 19 6.7
2020-Jan-25 20:31 086 13 gusting 24 6.7
2020-Jan-25 20:15 096 13 gusting 24 6.7
2020-Jan-25 20:00 076 14 gusting 19 6.7
2020-Jan-25 19:45 074 10 gusting 21 6.7
2020-Jan-25 19:30 074 9 gusting 18 6.7
2020-Jan-25 19:15 076 13 gusting 22 6.7
2020-Jan-25 19:00 071 12 gusting 19 6.7
2020-Jan-25 18:45 068 13 gusting 20 6.7
2020-Jan-25 18:30 043 11 gusting 20 6.7
2020-Jan-25 18:15 070 13 gusting 21 6.7
2020-Jan-25 18:00 068 9 gusting 19 6.7
2020-Jan-25 17:45 106 13 gusting 21 6.7
2020-Jan-25 17:30 096 10 gusting 19 6.7
2020-Jan-25 17:15 063 11 gusting 21 6.7
2020-Jan-25 17:00 070 9 gusting 19 6.7
2020-Jan-25 16:33 067 9 gusting 20 6.7
2020-Jan-25 16:18 075 12 gusting 19 6.1
2020-Jan-25 16:01 331 11 gusting 16 6.1
2020-Jan-25 15:46 080 11 gusting 17 5.6
2020-Jan-25 15:31 086 10 gusting 18 5.6
2020-Jan-25 15:17 106 10 gusting 18 5.6
2020-Jan-25 15:01 098 12 gusting 19 5.6
2020-Jan-25 14:47 114 9 gusting 16 5.0
2020-Jan-25 14:30 088 9 gusting 16 5.0
2020-Jan-25 14:16 096 6 gusting 13 5.0
2020-Jan-25 14:02 065 7 gusting 16 5.0
2020-Jan-25 13:46 108 7 gusting 16 5.0
2020-Jan-25 13:31 086 9 gusting 18 5.0
2020-Jan-25 13:17 075 11 gusting 20 5.0
2020-Jan-25 13:02 072 10 gusting 17 5.0
2020-Jan-25 12:46 103 8 gusting 17 5.0
2020-Jan-25 12:30 087 8 gusting 15 4.4
2020-Jan-25 12:16 080 6 gusting 16 4.4
2020-Jan-25 12:01 094 5 gusting 12 4.4